createdAt,value
2018-06-10T00:01:49.791Z,26.33
2018-06-10T00:04:22.328Z,26.95
2018-06-10T00:06:54.110Z,25.33
2018-06-10T00:09:25.362Z,26.70
2018-06-10T00:11:55.596Z,26.80
2018-06-10T00:14:27.190Z,25.40
2018-06-10T00:17:01.254Z,27.37
2018-06-10T00:19:30.019Z,26.15
2018-06-10T00:22:02.845Z,26.40
2018-06-10T00:24:32.635Z,25.02
2018-06-10T00:27:01.303Z,26.92
2018-06-10T00:29:34.813Z,26.35
2018-06-10T00:32:04.212Z,25.52
2018-06-10T00:34:33.421Z,27.35
2018-06-10T00:37:08.881Z,26.45
2018-06-10T00:39:39.718Z,25.70
2018-06-10T00:42:08.197Z,27.25
2018-06-10T00:44:37.727Z,26.90
2018-06-10T00:47:08.309Z,28.35
2018-06-10T00:49:36.655Z,29.73
2018-06-10T00:52:05.420Z,26.45
2018-06-10T00:54:34.190Z,28.75
2018-06-10T00:57:03.294Z,26.33
2018-06-10T00:59:32.236Z,28.15
2018-06-10T01:02:03.817Z,31.08
2018-06-10T01:04:33.583Z,31.48
2018-06-10T01:07:04.595Z,26.85
2018-06-10T01:09:35.081Z,27.95
2018-06-10T01:12:07.497Z,28.55
2018-06-10T01:14:37.518Z,30.17
2018-06-10T01:17:08.619Z,31.33
2018-06-10T01:19:38.482Z,29.20
2018-06-10T01:22:08.622Z,30.00
2018-06-10T01:24:35.882Z,28.60
2018-06-10T01:27:05.922Z,26.85
2018-06-10T01:29:35.990Z,31.02
2018-06-10T01:32:05.736Z,30.48
2018-06-10T01:34:36.199Z,28.75
2018-06-10T01:37:07.783Z,28.48
2018-06-10T01:39:37.148Z,30.08
2018-06-10T01:42:06.432Z,29.80
2018-06-10T01:44:37.467Z,27.42
2018-06-10T01:47:08.091Z,28.42
2018-06-10T01:54:45.608Z,28.95
2018-06-10T01:57:16.763Z,29.60
2018-06-10T01:59:45.718Z,29.30
2018-06-10T02:02:17.521Z,29.12
2018-06-10T02:04:48.196Z,29.23
2018-06-10T02:07:17.436Z,31.92
2018-06-10T02:09:44.864Z,29.60
2018-06-10T02:12:15.025Z,29.42
2018-06-10T02:14:44.803Z,29.58
2018-06-10T02:17:15.974Z,29.33
2018-06-10T02:19:48.920Z,30.98
2018-06-10T02:22:20.574Z,31.30
2018-06-10T02:24:53.964Z,31.20
2018-06-10T02:27:22.795Z,30.67
2018-06-10T02:29:52.624Z,32.67
2018-06-10T02:32:24.025Z,29.50
2018-06-10T02:34:54.419Z,30.83
2018-06-10T02:42:36.555Z,30.60
2018-06-10T02:45:13.011Z,31.20
2018-06-10T02:47:43.141Z,31.95
2018-06-10T02:50:12.442Z,29.50
2018-06-10T02:52:42.652Z,31.92
2018-06-10T02:55:12.152Z,32.25
2018-06-10T02:57:42.607Z,32.45
2018-06-10T03:00:11.291Z,31.60
2018-06-10T03:02:41.417Z,29.17
2018-06-10T03:05:12.648Z,29.95
2018-06-10T03:07:43.875Z,31.83
2018-06-10T03:10:13.209Z,30.42
2018-06-10T03:12:43.405Z,29.75
2018-06-10T03:15:14.866Z,30.00
2018-06-10T03:17:45.156Z,31.55
2018-06-10T03:20:15.912Z,29.85
2018-06-10T03:22:48.386Z,30.30
2018-06-10T03:25:17.746Z,30.92
2018-06-10T03:27:46.791Z,30.90
2018-06-10T03:30:19.536Z,31.62
2018-06-10T03:35:25.768Z,29.58
2018-06-10T03:37:57.465Z,30.10
2018-06-10T03:40:30.108Z,30.98
2018-06-10T03:43:00.423Z,30.58
2018-06-10T03:45:31.547Z,28.27
2018-06-10T03:50:52.316Z,32.03
2018-06-10T03:53:25.551Z,32.58
2018-06-10T03:55:56.227Z,31.20
2018-06-10T03:58:29.088Z,31.08
2018-06-10T04:00:57.592Z,30.95
2018-06-10T04:03:29.196Z,31.65
2018-06-10T04:06:00.742Z,31.08
2018-06-10T04:08:31.350Z,30.48
2018-06-10T04:11:05.607Z,31.67
2018-06-10T04:13:37.085Z,35.22
2018-06-10T04:16:08.128Z,32.30
2018-06-10T04:21:13.675Z,32.20
2018-06-10T04:23:44.962Z,35.13
2018-06-10T04:26:12.414Z,34.47
2018-06-10T04:28:45.244Z,32.92
2018-06-10T04:31:14.032Z,33.55
2018-06-10T04:33:44.191Z,34.08
2018-06-10T04:36:12.503Z,31.42
2018-06-10T04:38:43.639Z,32.72
2018-06-10T04:41:13.492Z,32.38
2018-06-10T04:43:44.155Z,35.33
2018-06-10T04:46:14.817Z,32.22
2018-06-10T04:48:45.654Z,33.83
2018-06-10T04:51:14.387Z,35.15
2018-06-10T04:53:45.551Z,33.35
2018-06-10T04:56:14.290Z,32.45
2018-06-10T04:58:43.292Z,32.80
2018-06-10T05:01:12.526Z,32.83
2018-06-10T05:03:44.267Z,32.72
2018-06-10T05:06:17.665Z,33.63
2018-06-10T05:08:47.487Z,33.47
2018-06-10T05:11:16.666Z,31.70
2018-06-10T05:13:48.750Z,32.47
2018-06-10T05:16:18.340Z,34.05
2018-06-10T05:18:49.904Z,35.65
2018-06-10T05:21:18.136Z,33.78
2018-06-10T05:23:49.922Z,33.45
2018-06-10T05:26:18.635Z,34.55
2018-06-10T05:28:48.234Z,34.85
2018-06-10T05:31:18.703Z,31.08
2018-06-10T05:33:48.955Z,33.80
2018-06-10T05:36:22.957Z,31.20
2018-06-10T05:38:52.544Z,31.83
2018-06-10T05:41:22.817Z,30.52
2018-06-10T05:43:52.644Z,31.37
2018-06-10T05:46:25.991Z,31.00
2018-06-10T05:48:58.513Z,30.55
2018-06-10T05:51:29.252Z,28.30
2018-06-10T05:53:59.545Z,28.87
2018-06-10T05:56:28.039Z,29.45
2018-06-10T05:58:58.146Z,27.42
2018-06-10T06:01:27.434Z,29.00
2018-06-10T06:03:57.294Z,29.08
2018-06-10T06:06:27.798Z,29.70
2018-06-10T06:09:02.262Z,27.77
2018-06-10T06:11:33.896Z,28.58
2018-06-10T06:14:02.191Z,28.98
2018-06-10T06:16:32.491Z,29.05
2018-06-10T06:19:02.244Z,29.45
2018-06-10T06:21:35.699Z,28.20
2018-06-10T06:24:06.767Z,26.75
2018-06-10T06:26:37.350Z,24.85
2018-06-10T06:29:06.970Z,25.52
2018-06-10T06:31:35.138Z,27.35
2018-06-10T06:34:05.081Z,29.40
2018-06-10T06:36:33.239Z,27.42
2018-06-10T06:39:04.181Z,26.60
2018-06-10T06:41:32.397Z,26.30
2018-06-10T06:44:02.104Z,27.98
2018-06-10T06:46:31.079Z,25.92
2018-06-10T06:48:59.039Z,27.87
2018-06-10T06:51:26.283Z,25.67
2018-06-10T06:53:55.342Z,26.83
2018-06-10T06:56:24.678Z,23.90
2018-06-10T06:58:54.118Z,22.73
2018-06-10T07:01:22.813Z,21.85
2018-06-10T07:03:50.956Z,24.02
2018-06-10T07:06:18.498Z,23.05
2018-06-10T07:08:44.708Z,21.90
2018-06-10T07:11:10.852Z,19.73
2018-06-10T07:13:36.821Z,22.70
2018-06-10T07:16:02.861Z,21.50
2018-06-10T07:18:45.559Z,21.40
2018-06-10T07:21:13.865Z,20.33
2018-06-10T07:23:41.748Z,23.10
2018-06-10T07:26:09.499Z,20.43
2018-06-10T07:28:36.545Z,19.50
2018-06-10T07:31:04.280Z,23.33
2018-06-10T07:36:38.348Z,23.37
2018-06-10T07:39:09.748Z,23.70
2018-06-10T07:41:40.156Z,26.20
2018-06-10T07:50:25.108Z,23.47
2018-06-10T08:16:51.408Z,22.03
2018-06-10T08:19:23.415Z,23.50
2018-06-10T08:21:50.108Z,22.27
2018-06-10T08:24:16.774Z,21.90
2018-06-10T08:26:42.706Z,21.67
2018-06-10T08:29:08.625Z,20.77
2018-06-10T08:31:34.539Z,22.70
2018-06-10T08:34:00.449Z,23.40
2018-06-10T08:36:26.415Z,23.27
2018-06-10T08:38:52.319Z,23.53
2018-06-10T08:41:18.257Z,21.13
2018-06-10T08:43:44.178Z,21.47
2018-06-10T08:46:10.074Z,21.07
2018-06-10T08:48:36.046Z,21.47
2018-06-10T08:51:01.952Z,21.60
2018-06-10T08:53:27.895Z,20.53
2018-06-10T08:55:54.548Z,21.20
2018-06-10T08:58:20.466Z,22.43
2018-06-10T09:00:47.098Z,20.70
2018-06-10T09:03:13.039Z,19.50
2018-06-10T09:05:38.946Z,19.30
2018-06-10T09:08:04.885Z,20.10
2018-06-10T09:10:30.806Z,21.00
2018-06-10T09:12:56.712Z,18.53
2018-06-10T09:15:22.676Z,20.93
2018-06-10T09:17:48.595Z,20.00
2018-06-10T09:20:14.518Z,21.93
2018-06-10T09:22:40.445Z,20.43
2018-06-10T09:25:06.416Z,19.50
2018-06-10T09:27:32.350Z,20.97
2018-06-10T09:29:58.290Z,18.10
2018-06-10T09:32:24.206Z,19.40
2018-06-10T09:34:50.144Z,18.77
2018-06-10T09:37:16.078Z,17.73
2018-06-10T09:39:42.047Z,17.90
2018-06-10T09:42:08.002Z,16.87
2018-06-10T09:44:34.634Z,15.73
2018-06-10T09:47:00.546Z,15.87
2018-06-10T09:49:26.513Z,15.03
2018-06-10T09:51:52.416Z,16.07
2018-06-10T09:54:18.395Z,17.57
2018-06-10T09:56:44.326Z,16.10
2018-06-10T09:59:10.257Z,16.57
2018-06-10T10:01:36.182Z,15.07
2018-06-10T10:04:02.131Z,14.33
2018-06-10T10:06:28.085Z,14.23
2018-06-10T10:08:54.775Z,14.00
2018-06-10T10:11:20.695Z,14.50
2018-06-10T10:13:47.723Z,13.77
2018-06-10T10:16:14.454Z,14.47
2018-06-10T10:18:40.413Z,15.17
2018-06-10T10:21:06.357Z,13.87
2018-06-10T10:23:32.329Z,14.00
2018-06-10T10:25:58.305Z,13.83
2018-06-10T10:28:24.270Z,14.40
2018-06-10T10:30:50.229Z,13.10
2018-06-10T10:33:16.235Z,13.27
2018-06-10T10:35:44.271Z,13.30
2018-06-10T10:38:10.425Z,14.10
2018-06-10T10:40:36.379Z,12.57
2018-06-10T10:43:02.390Z,13.30
2018-06-10T10:45:28.343Z,14.00
2018-06-10T10:47:54.271Z,13.60
2018-06-10T10:50:20.951Z,12.90
2018-06-10T10:52:50.420Z,12.57
2018-06-10T10:55:18.572Z,12.00
2018-06-10T11:09:56.435Z,11.20
2018-06-10T11:12:22.327Z,10.70
2018-06-10T11:14:48.289Z,10.30
2018-06-10T11:17:25.509Z,11.10
2018-06-10T11:19:57.434Z,10.17
2018-06-10T11:22:25.283Z,9.30
2018-06-10T11:24:51.294Z,11.10
2018-06-10T11:27:18.858Z,10.00
2018-06-10T11:29:44.892Z,10.73
2018-06-10T11:32:12.139Z,9.87
2018-06-10T11:34:38.097Z,10.63
2018-06-10T11:37:04.069Z,10.40
2018-06-10T11:39:29.988Z,10.80
2018-06-10T11:41:55.934Z,10.40
2018-06-10T11:50:39.239Z,10.50
2018-06-10T11:53:11.901Z,9.03
2018-06-10T12:01:14.431Z,9.10
2018-06-10T12:03:43.062Z,9.97
2018-06-10T12:06:15.619Z,9.07
2018-06-10T12:08:42.764Z,12.40
2018-06-10T12:11:10.336Z,9.53
2018-06-10T12:13:38.882Z,8.93
2018-06-10T12:18:47.874Z,8.30
2018-06-10T12:27:21.082Z,8.73
2018-06-10T12:29:47.015Z,8.00
2018-06-10T12:32:12.930Z,9.17
2018-06-10T12:34:42.890Z,14.90
2018-06-10T12:37:13.222Z,8.70
2018-06-10T12:39:39.203Z,8.43
2018-06-10T12:42:06.157Z,8.23
2018-06-10T12:44:35.777Z,16.73
2018-06-10T12:47:02.888Z,8.10
2018-06-10T12:49:30.982Z,8.00
2018-06-10T12:51:59.115Z,8.27
2018-06-10T12:54:27.679Z,7.07
2018-06-10T12:57:00.402Z,9.00
2018-06-10T12:59:28.475Z,9.00
2018-06-10T13:01:55.709Z,7.83
2018-06-10T13:04:29.267Z,7.17
2018-06-10T13:12:15.378Z,9.70
2018-06-10T13:14:47.382Z,12.20
2018-06-10T13:17:17.783Z,10.27
2018-06-10T13:19:47.461Z,8.30
2018-06-10T13:22:14.884Z,7.47
2018-06-10T13:24:42.278Z,7.47
2018-06-10T13:27:10.477Z,7.33
2018-06-10T13:29:41.349Z,7.63
2018-06-10T13:32:11.341Z,8.27
2018-06-10T13:34:43.172Z,7.70
2018-06-10T13:37:15.350Z,8.13
2018-06-10T13:39:43.314Z,8.80
2018-06-10T13:42:16.236Z,7.30
2018-06-10T13:44:46.818Z,7.47
2018-06-10T13:47:14.473Z,17.07
2018-06-10T13:49:43.558Z,11.60
2018-06-10T13:52:14.894Z,13.50
2018-06-10T13:54:46.680Z,8.37
2018-06-10T13:57:12.889Z,13.50
2018-06-10T13:59:38.814Z,9.00
2018-06-10T14:02:04.738Z,10.17
2018-06-10T14:04:30.693Z,8.33
2018-06-10T14:06:56.654Z,8.70
2018-06-10T14:09:25.200Z,8.90
2018-06-10T14:11:52.388Z,21.30
2018-06-10T14:14:20.637Z,11.30
2018-06-10T14:16:46.613Z,8.57
2018-06-10T14:19:12.581Z,9.00
2018-06-10T14:21:38.569Z,8.50
2018-06-10T14:24:05.687Z,9.10
2018-06-10T14:26:31.602Z,8.23
2018-06-10T14:28:58.333Z,8.47
2018-06-10T14:31:25.049Z,8.37
2018-06-10T14:33:51.029Z,9.03
2018-06-10T14:42:23.064Z,8.93
2018-06-10T14:44:50.575Z,11.00
2018-06-10T14:47:17.237Z,15.87
2018-06-10T14:49:43.166Z,11.27
2018-06-10T14:52:09.073Z,9.40
2018-06-10T14:54:35.031Z,10.07
2018-06-10T14:57:00.939Z,9.97
2018-06-10T14:59:26.850Z,9.80
2018-06-10T15:01:52.806Z,9.77
2018-06-10T15:22:27.105Z,7.10
2018-06-10T15:24:55.474Z,8.80
2018-06-10T15:27:24.236Z,8.40
2018-06-10T15:29:51.275Z,9.20
2018-06-10T15:38:27.742Z,9.20
2018-06-10T15:40:58.819Z,10.53
2018-06-10T15:43:26.415Z,26.27
2018-06-10T15:45:56.850Z,64.97
2018-06-10T15:51:04.652Z,9.43
2018-06-10T16:23:38.901Z,27.83
2018-06-10T18:08:08.423Z,5.70
2018-06-10T18:32:57.355Z,5.10
2018-06-10T18:35:42.947Z,7.00
2018-06-10T18:38:13.598Z,6.70
2018-06-10T18:40:45.644Z,6.07
2018-06-10T18:43:13.955Z,6.53
2018-06-10T18:45:41.643Z,4.87
2018-06-10T18:48:15.043Z,5.97
2018-06-10T18:50:45.080Z,5.70
2018-06-10T18:53:15.348Z,5.63
2018-06-10T18:55:55.142Z,5.80
2018-06-10T18:58:31.747Z,5.40
2018-06-10T19:01:22.508Z,5.83
2018-06-10T19:04:00.733Z,5.17
2018-06-10T19:06:36.983Z,7.10
2018-06-10T19:09:13.221Z,5.00
2018-06-10T19:11:45.617Z,6.07
2018-06-10T19:14:19.440Z,4.77
2018-06-10T19:16:55.829Z,5.30
2018-06-10T19:19:23.382Z,5.83
2018-06-10T19:28:07.502Z,4.90
2018-06-10T19:30:50.662Z,5.33
2018-06-10T19:33:30.407Z,5.90
2018-06-10T19:36:05.220Z,5.37
2018-06-10T19:38:37.955Z,5.13
2018-06-10T19:41:14.842Z,4.93
2018-06-10T19:43:48.328Z,4.73
2018-06-10T19:46:31.500Z,4.90
2018-06-10T19:49:08.429Z,6.03
2018-06-10T19:51:43.397Z,5.63
2018-06-10T19:54:27.271Z,5.40
2018-06-10T19:59:55.082Z,6.40
2018-06-10T20:02:41.221Z,5.70
2018-06-10T20:05:16.544Z,5.00
2018-06-10T20:10:54.822Z,5.67
2018-06-10T20:16:16.067Z,5.63
2018-06-10T20:18:53.454Z,5.80
2018-06-10T20:21:34.851Z,5.70
2018-06-10T20:24:15.441Z,5.87
2018-06-10T20:27:01.602Z,5.33
2018-06-10T20:32:37.861Z,5.70
2018-06-10T20:38:30.089Z,6.57
2018-06-10T20:52:54.437Z,6.20
2018-06-10T22:43:14.449Z,7.30
2018-06-10T22:46:02.178Z,7.60
2018-06-10T22:51:46.923Z,8.20
2018-06-10T22:59:28.663Z,8.83
2018-06-10T23:02:09.768Z,8.33
2018-06-10T23:04:54.857Z,8.13
2018-06-10T23:16:11.850Z,7.20
2018-06-10T23:21:45.279Z,7.90
2018-06-10T23:24:24.799Z,7.93
2018-06-10T23:27:06.611Z,8.73
2018-06-10T23:32:37.824Z,8.50
2018-06-10T23:50:51.696Z,8.08
2018-06-10T23:53:35.627Z,7.62
2018-06-10T23:56:15.296Z,7.70
2018-06-10T23:58:55.084Z,7.92
